sensor_id;sensor_type;location;lat;lon;timestamp;P1;durP1;ratioP1;P2;durP2;ratioP2
40284;SDS011;25997;50.214;19.354;2023-10-08T00:00:48;4.32;;;3.33;;
40284;SDS011;25997;50.214;19.354;2023-10-08T00:03:53;4.68;;;3.30;;
40284;SDS011;25997;50.214;19.354;2023-10-08T00:06:58;3.72;;;2.40;;
40284;SDS011;25997;50.214;19.354;2023-10-08T00:10:01;1.90;;;1.15;;
40284;SDS011;25997;50.214;19.354;2023-10-08T00:13:04;1.92;;;0.95;;
40284;SDS011;25997;50.214;19.354;2023-10-08T00:16:08;0.93;;;0.70;;
40284;SDS011;25997;50.214;19.354;2023-10-08T00:19:13;1.40;;;0.80;;
40284;SDS011;25997;50.214;19.354;2023-10-08T00:22:16;1.80;;;1.00;;
40284;SDS011;25997;50.214;19.354;2023-10-08T00:25:19;1.80;;;1.20;;
40284;SDS011;25997;50.214;19.354;2023-10-08T00:28:22;3.03;;;1.13;;
40284;SDS011;25997;50.214;19.354;2023-10-08T00:31:25;2.38;;;1.67;;
40284;SDS011;25997;50.214;19.354;2023-10-08T00:34:32;2.05;;;1.55;;
40284;SDS011;25997;50.214;19.354;2023-10-08T00:37:37;3.00;;;2.70;;
40284;SDS011;25997;50.214;19.354;2023-10-08T00:40:40;3.67;;;3.28;;
40284;SDS011;25997;50.214;19.354;2023-10-08T00:43:46;4.70;;;4.20;;
40284;SDS011;25997;50.214;19.354;2023-10-08T00:46:49;4.35;;;3.92;;
40284;SDS011;25997;50.214;19.354;2023-10-08T00:49:53;5.93;;;5.03;;
40284;SDS011;25997;50.214;19.354;2023-10-08T00:53:07;3.63;;;3.28;;
40284;SDS011;25997;50.214;19.354;2023-10-08T00:56:18;3.58;;;3.17;;
40284;SDS011;25997;50.214;19.354;2023-10-08T00:59:21;2.03;;;1.60;;
40284;SDS011;25997;50.214;19.354;2023-10-08T01:02:24;2.40;;;1.83;;
40284;SDS011;25997;50.214;19.354;2023-10-08T01:05:30;2.13;;;1.60;;
40284;SDS011;25997;50.214;19.354;2023-10-08T01:08:47;3.13;;;1.87;;
40284;SDS011;25997;50.214;19.354;2023-10-08T01:12:06;2.00;;;1.23;;
40284;SDS011;25997;50.214;19.354;2023-10-08T01:15:13;3.05;;;1.65;;
40284;SDS011;25997;50.214;19.354;2023-10-08T01:18:18;3.08;;;1.33;;
40284;SDS011;25997;50.214;19.354;2023-10-08T01:21:31;4.30;;;1.15;;
40284;SDS011;25997;50.214;19.354;2023-10-08T01:24:41;1.23;;;0.60;;
40284;SDS011;25997;50.214;19.354;2023-10-08T01:27:45;1.52;;;0.75;;
40284;SDS011;25997;50.214;19.354;2023-10-08T01:30:47;1.15;;;0.55;;
40284;SDS011;25997;50.214;19.354;2023-10-08T01:33:54;1.27;;;0.80;;
40284;SDS011;25997;50.214;19.354;2023-10-08T01:36:57;0.95;;;0.50;;
40284;SDS011;25997;50.214;19.354;2023-10-08T01:40:06;0.93;;;0.60;;
40284;SDS011;25997;50.214;19.354;2023-10-08T01:43:09;0.65;;;0.40;;
40284;SDS011;25997;50.214;19.354;2023-10-08T01:46:14;0.47;;;0.40;;
40284;SDS011;25997;50.214;19.354;2023-10-08T01:49:16;1.38;;;0.40;;
40284;SDS011;25997;50.214;19.354;2023-10-08T01:52:22;1.52;;;0.60;;
40284;SDS011;25997;50.214;19.354;2023-10-08T01:55:27;1.15;;;0.73;;
40284;SDS011;25997;50.214;19.354;2023-10-08T01:58:34;1.70;;;0.93;;
40284;SDS011;25997;50.214;19.354;2023-10-08T02:01:36;0.35;;;0.32;;
40284;SDS011;25997;50.214;19.354;2023-10-08T02:04:39;1.70;;;1.20;;
40284;SDS011;25997;50.214;19.354;2023-10-08T02:07:42;1.15;;;0.52;;
40284;SDS011;25997;50.214;19.354;2023-10-08T02:10:46;0.70;;;0.40;;
40284;SDS011;25997;50.214;19.354;2023-10-08T02:13:48;1.02;;;0.60;;
40284;SDS011;25997;50.214;19.354;2023-10-08T02:16:52;0.73;;;0.60;;
40284;SDS011;25997;50.214;19.354;2023-10-08T02:19:56;2.15;;;0.70;;
40284;SDS011;25997;50.214;19.354;2023-10-08T02:22:59;2.50;;;0.80;;
40284;SDS011;25997;50.214;19.354;2023-10-08T02:26:03;1.85;;;0.85;;
40284;SDS011;25997;50.214;19.354;2023-10-08T02:29:06;1.20;;;0.68;;
40284;SDS011;25997;50.214;19.354;2023-10-08T02:32:12;2.38;;;1.30;;
40284;SDS011;25997;50.214;19.354;2023-10-08T02:35:14;2.20;;;0.75;;
40284;SDS011;25997;50.214;19.354;2023-10-08T02:38:17;0.93;;;0.70;;
40284;SDS011;25997;50.214;19.354;2023-10-08T02:41:23;1.20;;;0.80;;
40284;SDS011;25997;50.214;19.354;2023-10-08T02:44:26;1.67;;;0.73;;
40284;SDS011;25997;50.214;19.354;2023-10-08T02:47:29;1.90;;;0.82;;
40284;SDS011;25997;50.214;19.354;2023-10-08T02:50:32;1.02;;;0.50;;
40284;SDS011;25997;50.214;19.354;2023-10-08T02:53:34;1.38;;;0.70;;
40284;SDS011;25997;50.214;19.354;2023-10-08T02:56:38;1.88;;;0.63;;
40284;SDS011;25997;50.214;19.354;2023-10-08T02:59:41;1.60;;;0.70;;
40284;SDS011;25997;50.214;19.354;2023-10-08T03:02:46;1.33;;;0.73;;
40284;SDS011;25997;50.214;19.354;2023-10-08T03:05:51;2.15;;;1.35;;
40284;SDS011;25997;50.214;19.354;2023-10-08T03:08:57;2.30;;;1.42;;
40284;SDS011;25997;50.214;19.354;2023-10-08T03:12:06;6.03;;;1.65;;
40284;SDS011;25997;50.214;19.354;2023-10-08T03:15:10;3.33;;;1.40;;
40284;SDS011;25997;50.214;19.354;2023-10-08T03:18:29;2.22;;;1.30;;
40284;SDS011;25997;50.214;19.354;2023-10-08T03:21:36;3.28;;;1.45;;
40284;SDS011;25997;50.214;19.354;2023-10-08T03:24:49;3.78;;;2.08;;
40284;SDS011;25997;50.214;19.354;2023-10-08T03:27:53;3.97;;;2.28;;
40284;SDS011;25997;50.214;19.354;2023-10-08T03:30:56;5.63;;;1.63;;
40284;SDS011;25997;50.214;19.354;2023-10-08T03:34:04;3.97;;;1.60;;
40284;SDS011;25997;50.214;19.354;2023-10-08T03:37:08;2.58;;;1.25;;
40284;SDS011;25997;50.214;19.354;2023-10-08T03:40:12;1.77;;;1.00;;
40284;SDS011;25997;50.214;19.354;2023-10-08T03:43:33;1.27;;;0.70;;
40284;SDS011;25997;50.214;19.354;2023-10-08T03:46:44;1.38;;;0.93;;
40284;SDS011;25997;50.214;19.354;2023-10-08T03:49:48;1.38;;;0.75;;
40284;SDS011;25997;50.214;19.354;2023-10-08T03:52:52;1.65;;;1.17;;
40284;SDS011;25997;50.214;19.354;2023-10-08T03:55:56;2.08;;;1.10;;
40284;SDS011;25997;50.214;19.354;2023-10-08T03:59:03;5.25;;;1.42;;
40284;SDS011;25997;50.214;19.354;2023-10-08T04:02:13;1.30;;;0.82;;
40284;SDS011;25997;50.214;19.354;2023-10-08T04:05:22;4.00;;;1.20;;
40284;SDS011;25997;50.214;19.354;2023-10-08T04:08:28;5.53;;;1.98;;
40284;SDS011;25997;50.214;19.354;2023-10-08T04:11:44;3.20;;;1.10;;
40284;SDS011;25997;50.214;19.354;2023-10-08T04:14:57;3.03;;;1.00;;
40284;SDS011;25997;50.214;19.354;2023-10-08T04:18:00;3.13;;;0.95;;
40284;SDS011;25997;50.214;19.354;2023-10-08T04:21:03;4.47;;;1.15;;
40284;SDS011;25997;50.214;19.354;2023-10-08T04:24:13;5.25;;;1.77;;
40284;SDS011;25997;50.214;19.354;2023-10-08T04:27:15;5.00;;;1.50;;
40284;SDS011;25997;50.214;19.354;2023-10-08T04:30:20;8.15;;;1.90;;
40284;SDS011;25997;50.214;19.354;2023-10-08T04:33:28;8.93;;;2.10;;
40284;SDS011;25997;50.214;19.354;2023-10-08T04:36:34;6.32;;;2.45;;
40284;SDS011;25997;50.214;19.354;2023-10-08T04:39:39;6.93;;;3.60;;
40284;SDS011;25997;50.214;19.354;2023-10-08T04:42:47;9.02;;;4.40;;
40284;SDS011;25997;50.214;19.354;2023-10-08T04:45:51;6.00;;;3.30;;
40284;SDS011;25997;50.214;19.354;2023-10-08T04:48:54;4.22;;;2.28;;
40284;SDS011;25997;50.214;19.354;2023-10-08T04:51:57;4.88;;;1.70;;
40284;SDS011;25997;50.214;19.354;2023-10-08T04:55:00;6.07;;;1.45;;
40284;SDS011;25997;50.214;19.354;2023-10-08T04:58:13;4.78;;;1.90;;
40284;SDS011;25997;50.214;19.354;2023-10-08T05:01:23;3.40;;;1.83;;
40284;SDS011;25997;50.214;19.354;2023-10-08T05:04:39;2.53;;;1.55;;
40284;SDS011;25997;50.214;19.354;2023-10-08T05:07:57;5.45;;;1.77;;
40284;SDS011;25997;50.214;19.354;2023-10-08T05:11:19;2.92;;;1.20;;
40284;SDS011;25997;50.214;19.354;2023-10-08T05:14:46;2.90;;;1.33;;
40284;SDS011;25997;50.214;19.354;2023-10-08T05:18:18;3.90;;;2.13;;
40284;SDS011;25997;50.214;19.354;2023-10-08T05:21:38;3.85;;;1.55;;
40284;SDS011;25997;50.214;19.354;2023-10-08T05:24:51;2.90;;;1.50;;
40284;SDS011;25997;50.214;19.354;2023-10-08T05:28:08;3.08;;;1.30;;
40284;SDS011;25997;50.214;19.354;2023-10-08T05:31:10;2.50;;;1.13;;
40284;SDS011;25997;50.214;19.354;2023-10-08T05:34:33;3.47;;;1.20;;
40284;SDS011;25997;50.214;19.354;2023-10-08T05:37:43;3.58;;;1.38;;
40284;SDS011;25997;50.214;19.354;2023-10-08T05:40:48;3.67;;;1.38;;
40284;SDS011;25997;50.214;19.354;2023-10-08T05:44:17;2.85;;;1.30;;
40284;SDS011;25997;50.214;19.354;2023-10-08T05:47:39;1.50;;;0.98;;
40284;SDS011;25997;50.214;19.354;2023-10-08T05:50:43;5.13;;;1.23;;
40284;SDS011;25997;50.214;19.354;2023-10-08T05:53:55;2.10;;;1.33;;
40284;SDS011;25997;50.214;19.354;2023-10-08T05:56:57;3.58;;;1.38;;
40284;SDS011;25997;50.214;19.354;2023-10-08T06:00:08;3.65;;;1.85;;
40284;SDS011;25997;50.214;19.354;2023-10-08T06:03:33;3.88;;;1.63;;
40284;SDS011;25997;50.214;19.354;2023-10-08T06:06:48;2.65;;;1.42;;
40284;SDS011;25997;50.214;19.354;2023-10-08T06:10:12;2.25;;;1.30;;
40284;SDS011;25997;50.214;19.354;2023-10-08T06:13:34;4.93;;;2.22;;
40284;SDS011;25997;50.214;19.354;2023-10-08T06:16:52;3.83;;;2.35;;
40284;SDS011;25997;50.214;19.354;2023-10-08T06:20:13;4.43;;;2.47;;
40284;SDS011;25997;50.214;19.354;2023-10-08T06:23:18;5.03;;;3.08;;
40284;SDS011;25997;50.214;19.354;2023-10-08T06:26:21;5.15;;;3.60;;
40284;SDS011;25997;50.214;19.354;2023-10-08T06:29:25;3.97;;;2.40;;
40284;SDS011;25997;50.214;19.354;2023-10-08T06:32:30;3.70;;;2.08;;
40284;SDS011;25997;50.214;19.354;2023-10-08T06:35:32;5.20;;;2.83;;
40284;SDS011;25997;50.214;19.354;2023-10-08T06:38:38;5.60;;;2.30;;
40284;SDS011;25997;50.214;19.354;2023-10-08T06:41:41;5.38;;;2.80;;
40284;SDS011;25997;50.214;19.354;2023-10-08T06:44:44;4.75;;;2.60;;
40284;SDS011;25997;50.214;19.354;2023-10-08T06:47:49;5.45;;;2.80;;
40284;SDS011;25997;50.214;19.354;2023-10-08T06:50:51;6.07;;;3.53;;
40284;SDS011;25997;50.214;19.354;2023-10-08T06:53:59;4.07;;;2.15;;
40284;SDS011;25997;50.214;19.354;2023-10-08T06:57:03;4.60;;;2.58;;
40284;SDS011;25997;50.214;19.354;2023-10-08T07:00:14;6.45;;;2.58;;
40284;SDS011;25997;50.214;19.354;2023-10-08T07:03:37;4.75;;;2.78;;
40284;SDS011;25997;50.214;19.354;2023-10-08T07:06:39;4.25;;;2.20;;
40284;SDS011;25997;50.214;19.354;2023-10-08T07:09:45;5.03;;;2.67;;
40284;SDS011;25997;50.214;19.354;2023-10-08T07:12:47;5.10;;;3.13;;
40284;SDS011;25997;50.214;19.354;2023-10-08T07:15:53;5.10;;;3.83;;
40284;SDS011;25997;50.214;19.354;2023-10-08T07:18:55;5.43;;;3.40;;
40284;SDS011;25997;50.214;19.354;2023-10-08T07:22:03;5.18;;;3.65;;
40284;SDS011;25997;50.214;19.354;2023-10-08T07:25:09;7.85;;;4.10;;
40284;SDS011;25997;50.214;19.354;2023-10-08T07:28:14;7.55;;;4.63;;
40284;SDS011;25997;50.214;19.354;2023-10-08T07:31:20;8.13;;;4.55;;
40284;SDS011;25997;50.214;19.354;2023-10-08T07:34:23;6.43;;;4.30;;
40284;SDS011;25997;50.214;19.354;2023-10-08T07:37:32;10.45;;;5.75;;
40284;SDS011;25997;50.214;19.354;2023-10-08T07:40:36;7.50;;;3.75;;
40284;SDS011;25997;50.214;19.354;2023-10-08T07:43:38;8.43;;;4.03;;
40284;SDS011;25997;50.214;19.354;2023-10-08T07:46:42;10.05;;;6.43;;
40284;SDS011;25997;50.214;19.354;2023-10-08T07:49:45;9.07;;;4.85;;
40284;SDS011;25997;50.214;19.354;2023-10-08T07:52:48;6.70;;;3.35;;
40284;SDS011;25997;50.214;19.354;2023-10-08T07:55:52;10.70;;;8.13;;
40284;SDS011;25997;50.214;19.354;2023-10-08T07:58:55;5.97;;;4.07;;
40284;SDS011;25997;50.214;19.354;2023-10-08T08:01:57;5.85;;;2.95;;
40284;SDS011;25997;50.214;19.354;2023-10-08T08:05:00;5.25;;;3.70;;
40284;SDS011;25997;50.214;19.354;2023-10-08T08:08:04;7.60;;;4.75;;
40284;SDS011;25997;50.214;19.354;2023-10-08T08:11:08;6.70;;;3.63;;
40284;SDS011;25997;50.214;19.354;2023-10-08T08:14:17;6.15;;;3.17;;
40284;SDS011;25997;50.214;19.354;2023-10-08T08:17:25;6.00;;;3.78;;
40284;SDS011;25997;50.214;19.354;2023-10-08T08:20:27;7.60;;;4.00;;
40284;SDS011;25997;50.214;19.354;2023-10-08T08:23:39;5.45;;;3.28;;
40284;SDS011;25997;50.214;19.354;2023-10-08T08:26:49;4.85;;;2.80;;
40284;SDS011;25997;50.214;19.354;2023-10-08T08:30:02;5.32;;;3.30;;
40284;SDS011;25997;50.214;19.354;2023-10-08T08:33:16;5.30;;;3.42;;
40284;SDS011;25997;50.214;19.354;2023-10-08T08:36:23;5.75;;;3.40;;
40284;SDS011;25997;50.214;19.354;2023-10-08T08:39:26;5.15;;;2.42;;
40284;SDS011;25997;50.214;19.354;2023-10-08T08:42:34;4.22;;;2.25;;
40284;SDS011;25997;50.214;19.354;2023-10-08T08:45:37;5.03;;;3.10;;
40284;SDS011;25997;50.214;19.354;2023-10-08T08:48:41;7.20;;;3.13;;
40284;SDS011;25997;50.214;19.354;2023-10-08T08:51:44;8.23;;;4.40;;
40284;SDS011;25997;50.214;19.354;2023-10-08T08:54:52;7.22;;;4.47;;
40284;SDS011;25997;50.214;19.354;2023-10-08T08:57:56;5.00;;;3.33;;
40284;SDS011;25997;50.214;19.354;2023-10-08T09:00:59;5.88;;;3.55;;
40284;SDS011;25997;50.214;19.354;2023-10-08T09:04:04;5.15;;;3.28;;
40284;SDS011;25997;50.214;19.354;2023-10-08T09:07:07;5.57;;;2.85;;
40284;SDS011;25997;50.214;19.354;2023-10-08T09:10:09;4.25;;;3.15;;
40284;SDS011;25997;50.214;19.354;2023-10-08T09:13:14;6.75;;;3.20;;
40284;SDS011;25997;50.214;19.354;2023-10-08T09:16:17;3.88;;;2.72;;
40284;SDS011;25997;50.214;19.354;2023-10-08T09:19:19;5.50;;;3.65;;
40284;SDS011;25997;50.214;19.354;2023-10-08T09:22:24;5.72;;;3.22;;
40284;SDS011;25997;50.214;19.354;2023-10-08T09:25:29;4.32;;;2.85;;
40284;SDS011;25997;50.214;19.354;2023-10-08T09:28:34;6.72;;;3.35;;
40284;SDS011;25997;50.214;19.354;2023-10-08T09:31:39;7.05;;;3.20;;
40284;SDS011;25997;50.214;19.354;2023-10-08T09:34:44;7.85;;;4.53;;
40284;SDS011;25997;50.214;19.354;2023-10-08T09:37:46;6.40;;;3.13;;
40284;SDS011;25997;50.214;19.354;2023-10-08T09:40:49;4.78;;;2.83;;
40284;SDS011;25997;50.214;19.354;2023-10-08T09:43:55;4.07;;;2.20;;
40284;SDS011;25997;50.214;19.354;2023-10-08T09:47:00;5.68;;;2.40;;
40284;SDS011;25997;50.214;19.354;2023-10-08T09:50:05;7.55;;;2.22;;
40284;SDS011;25997;50.214;19.354;2023-10-08T09:53:12;3.88;;;2.22;;
40284;SDS011;25997;50.214;19.354;2023-10-08T09:56:18;4.53;;;1.80;;
40284;SDS011;25997;50.214;19.354;2023-10-08T09:59:23;3.75;;;1.80;;
40284;SDS011;25997;50.214;19.354;2023-10-08T10:02:26;2.35;;;1.70;;
40284;SDS011;25997;50.214;19.354;2023-10-08T10:05:29;3.42;;;1.38;;
40284;SDS011;25997;50.214;19.354;2023-10-08T10:08:32;3.60;;;1.63;;
40284;SDS011;25997;50.214;19.354;2023-10-08T10:11:36;3.45;;;1.50;;
40284;SDS011;25997;50.214;19.354;2023-10-08T10:14:44;2.03;;;1.38;;
40284;SDS011;25997;50.214;19.354;2023-10-08T10:17:48;3.70;;;1.60;;
40284;SDS011;25997;50.214;19.354;2023-10-08T10:20:51;5.15;;;2.75;;
40284;SDS011;25997;50.214;19.354;2023-10-08T10:23:55;2.67;;;1.52;;
40284;SDS011;25997;50.214;19.354;2023-10-08T10:27:09;4.05;;;1.58;;
40284;SDS011;25997;50.214;19.354;2023-10-08T10:30:13;3.25;;;2.05;;
40284;SDS011;25997;50.214;19.354;2023-10-08T10:33:21;3.35;;;1.75;;
40284;SDS011;25997;50.214;19.354;2023-10-08T10:36:24;5.20;;;2.50;;
40284;SDS011;25997;50.214;19.354;2023-10-08T10:39:26;3.92;;;2.35;;
40284;SDS011;25997;50.214;19.354;2023-10-08T10:42:30;2.78;;;1.70;;
40284;SDS011;25997;50.214;19.354;2023-10-08T10:45:44;3.22;;;1.80;;
40284;SDS011;25997;50.214;19.354;2023-10-08T10:48:48;3.60;;;1.50;;
40284;SDS011;25997;50.214;19.354;2023-10-08T10:52:05;1.85;;;1.23;;
40284;SDS011;25997;50.214;19.354;2023-10-08T10:55:13;3.03;;;1.73;;
40284;SDS011;25997;50.214;19.354;2023-10-08T10:58:24;3.20;;;1.73;;
40284;SDS011;25997;50.214;19.354;2023-10-08T11:01:28;5.70;;;5.10;;
40284;SDS011;25997;50.214;19.354;2023-10-08T11:04:30;2.22;;;1.73;;
40284;SDS011;25997;50.214;19.354;2023-10-08T11:07:34;2.90;;;1.92;;
40284;SDS011;25997;50.214;19.354;2023-10-08T11:10:42;2.70;;;1.73;;
40284;SDS011;25997;50.214;19.354;2023-10-08T11:13:49;5.95;;;1.77;;
40284;SDS011;25997;50.214;19.354;2023-10-08T11:16:56;3.88;;;2.25;;
40284;SDS011;25997;50.214;19.354;2023-10-08T11:19:59;4.60;;;2.08;;
40284;SDS011;25997;50.214;19.354;2023-10-08T11:23:07;3.15;;;1.75;;
40284;SDS011;25997;50.214;19.354;2023-10-08T11:26:19;2.95;;;1.80;;
40284;SDS011;25997;50.214;19.354;2023-10-08T11:29:32;2.63;;;1.60;;
40284;SDS011;25997;50.214;19.354;2023-10-08T11:32:40;3.00;;;1.73;;
40284;SDS011;25997;50.214;19.354;2023-10-08T11:35:57;4.88;;;2.80;;
40284;SDS011;25997;50.214;19.354;2023-10-08T11:39:08;4.55;;;1.90;;
40284;SDS011;25997;50.214;19.354;2023-10-08T11:42:22;3.47;;;1.83;;
40284;SDS011;25997;50.214;19.354;2023-10-08T11:45:40;7.55;;;2.50;;
40284;SDS011;25997;50.214;19.354;2023-10-08T11:48:50;3.17;;;1.67;;
40284;SDS011;25997;50.214;19.354;2023-10-08T11:51:52;2.53;;;1.55;;
40284;SDS011;25997;50.214;19.354;2023-10-08T11:54:56;2.78;;;1.63;;
40284;SDS011;25997;50.214;19.354;2023-10-08T11:57:58;2.83;;;1.58;;
40284;SDS011;25997;50.214;19.354;2023-10-08T12:01:01;5.35;;;2.25;;
40284;SDS011;25997;50.214;19.354;2023-10-08T12:04:06;2.83;;;1.60;;
40284;SDS011;25997;50.214;19.354;2023-10-08T12:07:13;2.55;;;1.70;;
40284;SDS011;25997;50.214;19.354;2023-10-08T12:10:18;2.92;;;1.85;;
40284;SDS011;25997;50.214;19.354;2023-10-08T12:13:22;5.35;;;2.30;;
40284;SDS011;25997;50.214;19.354;2023-10-08T12:16:25;5.30;;;2.60;;
40284;SDS011;25997;50.214;19.354;2023-10-08T12:19:31;5.43;;;2.10;;
40284;SDS011;25997;50.214;19.354;2023-10-08T12:22:34;2.42;;;1.75;;
40284;SDS011;25997;50.214;19.354;2023-10-08T12:25:37;4.88;;;2.20;;
40284;SDS011;25997;50.214;19.354;2023-10-08T12:28:40;5.82;;;2.33;;
40284;SDS011;25997;50.214;19.354;2023-10-08T12:31:43;4.22;;;2.45;;
40284;SDS011;25997;50.214;19.354;2023-10-08T12:34:49;3.72;;;2.13;;
40284;SDS011;25997;50.214;19.354;2023-10-08T12:37:54;3.08;;;1.55;;
40284;SDS011;25997;50.214;19.354;2023-10-08T12:40:57;4.13;;;2.78;;
40284;SDS011;25997;50.214;19.354;2023-10-08T12:44:08;8.25;;;6.55;;
40284;SDS011;25997;50.214;19.354;2023-10-08T12:47:11;4.47;;;3.38;;
40284;SDS011;25997;50.214;19.354;2023-10-08T12:50:15;4.20;;;2.63;;
40284;SDS011;25997;50.214;19.354;2023-10-08T12:53:25;3.78;;;1.98;;
40284;SDS011;25997;50.214;19.354;2023-10-08T12:56:34;3.10;;;2.10;;
40284;SDS011;25997;50.214;19.354;2023-10-08T12:59:40;3.40;;;1.77;;
40284;SDS011;25997;50.214;19.354;2023-10-08T13:02:45;3.20;;;1.77;;
40284;SDS011;25997;50.214;19.354;2023-10-08T13:05:55;5.53;;;4.35;;
40284;SDS011;25997;50.214;19.354;2023-10-08T13:09:04;4.38;;;2.38;;
40284;SDS011;25997;50.214;19.354;2023-10-08T13:12:13;4.63;;;3.08;;
40284;SDS011;25997;50.214;19.354;2023-10-08T13:15:15;3.85;;;2.67;;
40284;SDS011;25997;50.214;19.354;2023-10-08T13:18:18;2.85;;;2.13;;
40284;SDS011;25997;50.214;19.354;2023-10-08T13:21:22;4.03;;;2.10;;
40284;SDS011;25997;50.214;19.354;2023-10-08T13:24:25;2.88;;;1.90;;
40284;SDS011;25997;50.214;19.354;2023-10-08T13:27:29;3.03;;;1.80;;
40284;SDS011;25997;50.214;19.354;2023-10-08T13:30:31;5.45;;;3.67;;
40284;SDS011;25997;50.214;19.354;2023-10-08T13:33:34;3.53;;;1.88;;
40284;SDS011;25997;50.214;19.354;2023-10-08T13:36:37;3.00;;;1.95;;
40284;SDS011;25997;50.214;19.354;2023-10-08T13:39:40;3.38;;;1.80;;
40284;SDS011;25997;50.214;19.354;2023-10-08T13:42:42;2.78;;;1.60;;
40284;SDS011;25997;50.214;19.354;2023-10-08T13:45:45;14.85;;;8.43;;
40284;SDS011;25997;50.214;19.354;2023-10-08T13:48:47;5.03;;;2.55;;
40284;SDS011;25997;50.214;19.354;2023-10-08T13:51:51;8.00;;;5.03;;
40284;SDS011;25997;50.214;19.354;2023-10-08T13:54:57;3.60;;;2.13;;
40284;SDS011;25997;50.214;19.354;2023-10-08T13:58:00;6.40;;;4.15;;
40284;SDS011;25997;50.214;19.354;2023-10-08T14:01:03;5.65;;;3.40;;
40284;SDS011;25997;50.214;19.354;2023-10-08T14:04:19;5.18;;;3.25;;
40284;SDS011;25997;50.214;19.354;2023-10-08T14:07:25;4.35;;;2.85;;
40284;SDS011;25997;50.214;19.354;2023-10-08T14:10:28;3.90;;;2.15;;
40284;SDS011;25997;50.214;19.354;2023-10-08T14:13:32;4.25;;;2.13;;
40284;SDS011;25997;50.214;19.354;2023-10-08T14:16:36;3.47;;;2.17;;
40284;SDS011;25997;50.214;19.354;2023-10-08T14:19:42;4.68;;;2.92;;
40284;SDS011;25997;50.214;19.354;2023-10-08T14:22:53;3.75;;;2.72;;
40284;SDS011;25997;50.214;19.354;2023-10-08T14:26:02;4.43;;;2.78;;
40284;SDS011;25997;50.214;19.354;2023-10-08T14:29:07;4.93;;;3.00;;
40284;SDS011;25997;50.214;19.354;2023-10-08T14:32:11;5.80;;;3.45;;
40284;SDS011;25997;50.214;19.354;2023-10-08T14:35:13;4.93;;;2.58;;
40284;SDS011;25997;50.214;19.354;2023-10-08T14:38:34;3.95;;;2.30;;
40284;SDS011;25997;50.214;19.354;2023-10-08T14:41:54;4.38;;;2.08;;
40284;SDS011;25997;50.214;19.354;2023-10-08T14:45:14;2.67;;;1.70;;
40284;SDS011;25997;50.214;19.354;2023-10-08T14:48:19;3.28;;;2.03;;
40284;SDS011;25997;50.214;19.354;2023-10-08T14:51:22;5.13;;;3.50;;
40284;SDS011;25997;50.214;19.354;2023-10-08T14:54:26;4.63;;;2.72;;
40284;SDS011;25997;50.214;19.354;2023-10-08T14:57:29;4.03;;;2.50;;
40284;SDS011;25997;50.214;19.354;2023-10-08T15:00:31;3.47;;;2.20;;
40284;SDS011;25997;50.214;19.354;2023-10-08T15:03:36;3.15;;;1.95;;
40284;SDS011;25997;50.214;19.354;2023-10-08T15:06:38;6.50;;;3.95;;
40284;SDS011;25997;50.214;19.354;2023-10-08T15:09:42;5.82;;;2.95;;
40284;SDS011;25997;50.214;19.354;2023-10-08T15:12:45;3.03;;;1.92;;
40284;SDS011;25997;50.214;19.354;2023-10-08T15:15:47;4.35;;;2.75;;
40284;SDS011;25997;50.214;19.354;2023-10-08T15:18:50;4.20;;;2.20;;
40284;SDS011;25997;50.214;19.354;2023-10-08T15:21:53;4.28;;;2.28;;
40284;SDS011;25997;50.214;19.354;2023-10-08T15:24:57;3.47;;;2.15;;
40284;SDS011;25997;50.214;19.354;2023-10-08T15:27:59;5.05;;;2.60;;
40284;SDS011;25997;50.214;19.354;2023-10-08T15:31:02;6.88;;;2.67;;
40284;SDS011;25997;50.214;19.354;2023-10-08T15:34:04;4.97;;;2.55;;
40284;SDS011;25997;50.214;19.354;2023-10-08T15:37:06;4.88;;;3.58;;
40284;SDS011;25997;50.214;19.354;2023-10-08T15:40:10;5.00;;;2.78;;
40284;SDS011;25997;50.214;19.354;2023-10-08T15:43:17;6.47;;;4.40;;
40284;SDS011;25997;50.214;19.354;2023-10-08T15:46:19;15.82;;;12.75;;
40284;SDS011;25997;50.214;19.354;2023-10-08T15:49:22;13.93;;;11.50;;
40284;SDS011;25997;50.214;19.354;2023-10-08T15:52:24;13.52;;;11.07;;
40284;SDS011;25997;50.214;19.354;2023-10-08T15:55:28;13.15;;;9.43;;
40284;SDS011;25997;50.214;19.354;2023-10-08T15:58:30;26.83;;;18.33;;
40284;SDS011;25997;50.214;19.354;2023-10-08T16:01:32;19.77;;;13.27;;
40284;SDS011;25997;50.214;19.354;2023-10-08T16:04:34;12.02;;;8.95;;
40284;SDS011;25997;50.214;19.354;2023-10-08T16:07:36;12.18;;;6.43;;
40284;SDS011;25997;50.214;19.354;2023-10-08T16:10:40;10.32;;;6.47;;
40284;SDS011;25997;50.214;19.354;2023-10-08T16:13:42;11.65;;;7.50;;
40284;SDS011;25997;50.214;19.354;2023-10-08T16:16:45;15.00;;;9.82;;
40284;SDS011;25997;50.214;19.354;2023-10-08T16:19:47;16.65;;;10.68;;
40284;SDS011;25997;50.214;19.354;2023-10-08T16:22:49;22.55;;;14.52;;
40284;SDS011;25997;50.214;19.354;2023-10-08T16:25:54;30.45;;;18.75;;
40284;SDS011;25997;50.214;19.354;2023-10-08T16:28:57;18.77;;;13.93;;
40284;SDS011;25997;50.214;19.354;2023-10-08T16:31:59;32.65;;;29.25;;
40284;SDS011;25997;50.214;19.354;2023-10-08T16:35:01;60.97;;;40.50;;
40284;SDS011;25997;50.214;19.354;2023-10-08T16:38:04;35.92;;;25.42;;
40284;SDS011;25997;50.214;19.354;2023-10-08T16:41:08;40.63;;;29.02;;
40284;SDS011;25997;50.214;19.354;2023-10-08T16:44:12;36.70;;;22.27;;
40284;SDS011;25997;50.214;19.354;2023-10-08T16:47:15;18.73;;;11.07;;
40284;SDS011;25997;50.214;19.354;2023-10-08T16:50:18;23.30;;;13.35;;
40284;SDS011;25997;50.214;19.354;2023-10-08T16:53:21;24.00;;;15.73;;
40284;SDS011;25997;50.214;19.354;2023-10-08T16:56:26;19.88;;;11.73;;
40284;SDS011;25997;50.214;19.354;2023-10-08T16:59:28;26.90;;;12.45;;
40284;SDS011;25997;50.214;19.354;2023-10-08T17:02:31;23.17;;;13.00;;
40284;SDS011;25997;50.214;19.354;2023-10-08T17:05:33;29.05;;;15.57;;
40284;SDS011;25997;50.214;19.354;2023-10-08T17:08:35;14.95;;;8.50;;
40284;SDS011;25997;50.214;19.354;2023-10-08T17:11:40;18.95;;;12.68;;
40284;SDS011;25997;50.214;19.354;2023-10-08T17:14:45;29.73;;;14.35;;
40284;SDS011;25997;50.214;19.354;2023-10-08T17:17:48;15.95;;;8.82;;
40284;SDS011;25997;50.214;19.354;2023-10-08T17:20:50;21.85;;;12.45;;
40284;SDS011;25997;50.214;19.354;2023-10-08T17:23:52;34.20;;;17.02;;
40284;SDS011;25997;50.214;19.354;2023-10-08T17:26:56;33.60;;;17.80;;
40284;SDS011;25997;50.214;19.354;2023-10-08T17:29:59;20.95;;;11.77;;
40284;SDS011;25997;50.214;19.354;2023-10-08T17:33:02;17.02;;;10.23;;
40284;SDS011;25997;50.214;19.354;2023-10-08T17:36:06;17.63;;;10.90;;
40284;SDS011;25997;50.214;19.354;2023-10-08T17:39:09;32.38;;;16.55;;
40284;SDS011;25997;50.214;19.354;2023-10-08T17:42:18;30.90;;;16.25;;
40284;SDS011;25997;50.214;19.354;2023-10-08T17:45:20;27.42;;;15.65;;
40284;SDS011;25997;50.214;19.354;2023-10-08T17:48:25;21.50;;;13.80;;
40284;SDS011;25997;50.214;19.354;2023-10-08T17:51:31;18.30;;;11.32;;
40284;SDS011;25997;50.214;19.354;2023-10-08T17:54:35;22.08;;;13.77;;
40284;SDS011;25997;50.214;19.354;2023-10-08T17:57:39;18.17;;;10.52;;
40284;SDS011;25997;50.214;19.354;2023-10-08T18:00:42;13.70;;;8.18;;
40284;SDS011;25997;50.214;19.354;2023-10-08T18:03:44;12.90;;;7.07;;
40284;SDS011;25997;50.214;19.354;2023-10-08T18:06:47;9.80;;;6.60;;
40284;SDS011;25997;50.214;19.354;2023-10-08T18:09:50;12.85;;;7.43;;
40284;SDS011;25997;50.214;19.354;2023-10-08T18:12:53;11.10;;;7.22;;
40284;SDS011;25997;50.214;19.354;2023-10-08T18:15:57;11.27;;;7.53;;
40284;SDS011;25997;50.214;19.354;2023-10-08T18:18:59;13.77;;;8.60;;